Time;durP1;ratioP1;P1;durP2;ratioP2;P2;SDS_P1;SDS_P2;PMS_P1;PMS_P2;Temp;Humidity;BMP_temperature;BMP_pressure;BME280_temperature;BME280_humidity;BME280_pressure;Samples;Min_cycle;Max_cycle;Signal;HPM_P1;HPM_P2
2021/04/21 00:00:32;;;;;;;9.35;8.05;;;;;;;6.98;63.23;98824.59;3539399;40;20372;-65
2021/04/21 00:03:00;;;;;;;10.35;8.70;;;;;;;6.93;63.56;98824.25;3537956;40;20042;-65
2021/04/21 00:05:28;;;;;;;10.10;8.68;;;;;;;6.88;63.67;98822.16;3538805;40;20062;-65
2021/04/21 00:07:57;;;;;;;8.80;7.82;;;;;;;6.87;63.86;98817.88;3538806;40;20407;-65
2021/04/21 00:10:27;;;;;;;10.10;8.45;;;;;;;6.85;64.10;98822.47;3538671;40;20054;-65
2021/04/21 00:12:56;;;;;;;10.20;8.82;;;;;;;6.84;64.07;98817.41;3538676;40;20046;-65
2021/04/21 00:15:24;;;;;;;8.82;7.45;;;;;;;6.84;64.03;98817.41;3540212;40;20305;-64
2021/04/21 00:17:55;;;;;;;12.07;8.57;;;;;;;6.83;63.88;98815.75;3540032;40;20061;-65
2021/04/21 00:20:24;;;;;;;10.50;8.05;;;;;;;6.77;64.13;98811.97;3539459;40;20042;-62
2021/04/21 00:22:55;;;;;;;11.30;8.35;;;;;;;6.76;64.14;98815.59;3540312;40;20051;-63
2021/04/21 00:25:23;;;;;;;9.98;8.70;;;;;;;6.79;64.38;98807.38;3540449;40;20066;-64
2021/04/21 00:27:52;;;;;;;9.00;8.05;;;;;;;6.76;63.95;98807.72;3539990;40;20043;-63
2021/04/21 00:30:25;;;;;;;8.98;7.88;;;;;;;6.67;64.23;98808.72;3540208;40;20046;-63
2021/04/21 00:32:53;;;;;;;10.00;7.97;;;;;;;6.69;64.37;98801.50;3540505;40;20054;-64
2021/04/21 00:35:23;;;;;;;8.35;7.15;;;;;;;6.75;64.36;98802.66;3540286;40;20054;-64
2021/04/21 00:37:53;;;;;;;9.57;7.78;;;;;;;6.73;64.19;98805.41;3530899;40;20050;-64
2021/04/21 00:40:33;;;;;;;8.82;7.90;;;;;;;6.73;64.02;98801.97;3539209;40;20059;-64
2021/04/21 00:43:06;;;;;;;8.38;7.20;;;;;;;6.65;64.00;98806.28;3540027;40;20053;-64
2021/04/21 00:45:44;;;;;;;9.45;7.90;;;;;;;6.60;64.01;98805.13;3540271;40;20424;-64
2021/04/21 00:48:23;;;;;;;8.93;7.90;;;;;;;6.51;64.08;98808.75;3539845;40;20150;-64
2021/04/21 00:50:55;;;;;;;8.98;8.05;;;;;;;6.38;64.03;98812.72;3540053;40;20059;-63
2021/04/21 00:53:32;;;;;;;10.15;8.45;;;;;;;6.25;64.47;98801.91;3539238;40;20084;-63
2021/04/21 00:56:07;;;;;;;9.98;7.93;;;;;;;6.14;64.59;98810.09;3539311;40;20050;-64
2021/04/21 00:58:47;;;;;;;10.73;7.85;;;;;;;6.10;65.16;98809.59;3539684;40;20054;-63
2021/04/21 01:01:16;;;;;;;9.27;7.95;;;;;;;6.08;65.00;98808.97;3539539;40;20105;-63
2021/04/21 01:03:44;;;;;;;9.65;8.55;;;;;;;6.04;65.21;98810.25;3531009;40;20051;-62
2021/04/21 01:06:15;;;;;;;9.20;8.23;;;;;;;6.06;65.45;98807.47;3531164;40;20055;-64
2021/04/21 01:08:46;;;;;;;9.50;7.38;;;;;;;6.16;65.27;98805.47;3540015;40;20054;-64
2021/04/21 01:11:19;;;;;;;9.88;6.78;;;;;;;6.19;65.12;98805.16;3530916;40;20047;-64
2021/04/21 01:13:49;;;;;;;;;;;;;;;6.20;64.92;98806.81;3540748;40;20050;-64
2021/04/21 01:16:22;;;;;;;7.82;6.40;;;;;;;6.24;64.66;98799.41;3539166;40;20308;-64
2021/04/21 01:18:52;;;;;;;8.18;7.25;;;;;;;6.28;64.72;98798.09;3539588;40;20392;-63
2021/04/21 01:21:26;;;;;;;10.23;7.95;;;;;;;6.29;64.36;98792.72;3531134;40;20404;-63
2021/04/21 01:24:06;;;;;;;8.98;7.72;;;;;;;6.26;64.52;98792.22;3539892;40;20086;-64
2021/04/21 01:26:53;;;;;;;9.27;7.03;;;;;;;6.27;64.70;98796.47;3540181;40;20050;-63
2021/04/21 01:29:28;;;;;;;8.80;7.90;;;;;;;6.25;64.14;98790.59;3540755;40;20054;-64
2021/04/21 01:31:58;;;;;;;9.20;8.20;;;;;;;6.02;64.36;98791.22;3539865;40;20054;-64
2021/04/21 01:34:29;;;;;;;8.55;7.68;;;;;;;5.86;64.76;98796.44;3539983;40;20401;-63
2021/04/21 01:36:59;;;;;;;8.85;7.90;;;;;;;5.67;65.26;98789.66;3539409;40;20066;-63
2021/04/21 01:39:28;;;;;;;8.85;7.72;;;;;;;5.68;65.13;98794.78;3540431;40;20062;-64
2021/04/21 01:41:59;;;;;;;8.68;7.75;;;;;;;5.62;65.44;98794.59;3541447;40;20059;-64
2021/04/21 01:44:31;;;;;;;9.68;7.78;;;;;;;5.59;65.50;98787.03;3543451;40;20031;-64
2021/04/21 01:47:05;;;;;;;10.77;8.38;;;;;;;5.56;65.67;98797.88;3544748;40;20054;-65
2021/04/21 01:50:05;;;;;;;8.88;8.00;;;;;;;5.54;65.74;98797.19;3546311;40;20387;-64
2021/04/21 01:52:47;;;;;;;9.65;8.60;;;;;;;5.50;65.98;98794.06;3543473;40;20054;-64
2021/04/21 01:55:35;;;;;;;8.75;7.43;;;;;;;5.44;66.13;98792.09;3542127;40;20324;-63
2021/04/21 01:58:13;;;;;;;9.45;7.97;;;;;;;5.42;66.22;98801.91;3533681;40;20389;-63
2021/04/21 02:00:46;;;;;;;9.13;7.40;;;;;;;5.45;66.31;98796.34;3540146;40;20055;-63
2021/04/21 02:03:19;;;;;;;9.27;8.02;;;;;;;5.45;66.25;98799.78;3540181;40;20081;-63
2021/04/21 02:06:14;;;;;;;10.05;7.47;;;;;;;5.41;66.18;98801.09;3539973;40;20055;-63
2021/04/21 02:08:55;;;;;;;8.15;7.35;;;;;;;5.31;66.12;98799.59;3539911;40;20397;-66
2021/04/21 02:11:25;;;;;;;9.30;7.57;;;;;;;5.25;66.43;98797.59;3543977;40;20065;-65
2021/04/21 02:14:12;;;;;;;9.40;8.05;;;;;;;5.22;66.54;98803.97;3535303;40;20050;-63
2021/04/21 02:16:52;;;;;;;9.98;7.72;;;;;;;5.25;66.71;98803.66;3544457;40;20055;-63
2021/04/21 02:19:30;;;;;;;9.07;7.25;;;;;;;5.31;66.59;98804.84;3544598;40;20043;-63
2021/04/21 02:22:05;;;;;;;9.38;7.72;;;;;;;5.39;66.50;98810.13;3543443;40;20308;-63
2021/04/21 02:24:47;;;;;;;8.23;7.30;;;;;;;5.56;66.15;98808.34;3543505;40;20062;-64
2021/04/21 02:27:21;;;;;;;7.90;6.88;;;;;;;5.63;65.62;98802.31;3541008;40;20054;-64
2021/04/21 02:29:56;;;;;;;9.20;8.23;;;;;;;5.67;65.40;98808.88;3539628;40;20066;-65
2021/04/21 02:32:35;;;;;;;9.35;8.02;;;;;;;5.61;65.86;98804.25;3539590;40;20027;-64
2021/04/21 02:35:08;;;;;;;7.90;6.88;;;;;;;5.68;65.63;98800.03;3539967;40;20495;-64
2021/04/21 02:37:43;;;;;;;10.32;7.50;;;;;;;5.74;65.20;98793.28;3573808;23;20042;-64
2021/04/21 02:40:21;;;;;;;9.48;6.72;;;;;;;5.74;65.23;98797.72;3539511;40;20043;-64
2021/04/21 02:42:56;;;;;;;12.05;7.93;;;;;;;5.67;65.06;98793.13;3540076;40;20031;-64
2021/04/21 02:45:33;;;;;;;11.02;7.93;;;;;;;5.66;65.06;98795.91;3539884;40;20055;-64
2021/04/21 02:48:08;;;;;;;12.70;8.85;;;;;;;5.62;64.82;98800.66;3539800;40;20405;-64
2021/04/21 02:50:43;;;;;;;10.43;8.25;;;;;;;5.44;65.04;98797.34;3540146;40;20054;-64
2021/04/21 02:53:18;;;;;;;9.73;8.30;;;;;;;5.27;65.22;98800.91;3539875;40;20043;-64
2021/04/21 02:55:53;;;;;;;11.82;9.57;;;;;;;5.16;65.49;98794.94;3539851;40;20054;-64
2021/04/21 02:58:31;;;;;;;10.02;8.52;;;;;;;4.97;66.01;98801.25;3539959;40;20077;-63
2021/04/21 03:01:05;;;;;;;9.27;8.15;;;;;;;4.88;66.49;98807.44;3530910;40;20646;-64
2021/04/21 03:03:50;;;;;;;11.20;8.02;;;;;;;4.85;67.29;98802.50;3540129;40;20034;-64
2021/04/21 03:06:22;;;;;;;11.65;8.68;;;;;;;4.91;66.60;98806.31;3531114;40;20054;-64
2021/04/21 03:08:55;;;;;;;9.30;8.30;;;;;;;4.88;66.28;98802.19;3538887;40;20082;-63
2021/04/21 03:11:26;;;;;;;9.30;8.25;;;;;;;4.87;66.73;98797.13;3539182;40;20031;-63
2021/04/21 03:13:58;;;;;;;10.85;7.63;;;;;;;4.88;66.72;98801.38;3539471;40;20074;-63
2021/04/21 03:16:28;;;;;;;8.93;8.00;;;;;;;4.92;66.43;98798.28;3539383;40;20053;-66
2021/04/21 03:18:59;;;;;;;9.82;8.57;;;;;;;4.95;66.53;98792.75;3538996;40;20074;-63
2021/04/21 03:21:29;;;;;;;11.38;8.27;;;;;;;4.97;66.50;98797.81;3539366;40;20046;-63
2021/04/21 03:24:00;;;;;;;9.52;8.02;;;;;;;4.94;66.31;98792.91;3539149;40;20073;-64
2021/04/21 03:26:28;;;;;;;9.88;8.55;;;;;;;4.88;66.48;98790.91;3539308;40;20122;-64
2021/04/21 03:28:59;;;;;;;10.23;8.15;;;;;;;4.80;66.55;98796.09;3538817;40;20074;-64
2021/04/21 03:31:32;;;;;;;11.25;8.70;;;;;;;4.73;66.81;98795.88;3539412;40;20035;-64
2021/04/21 03:34:03;;;;;;;12.05;9.25;;;;;;;4.70;66.99;98794.41;3539226;40;20055;-64
2021/04/21 03:36:30;;;;;;;11.07;8.77;;;;;;;4.61;66.94;98787.50;3539204;40;20051;-64
2021/04/21 03:38:58;;;;;;;10.15;9.00;;;;;;;4.52;67.10;98792.81;3539065;40;20495;-64
2021/04/21 03:41:28;;;;;;;9.75;8.75;;;;;;;4.44;67.24;98793.59;3539232;40;20054;-65
2021/04/21 03:43:55;;;;;;;10.88;9.15;;;;;;;4.36;67.41;98791.72;3539270;40;20046;-65
2021/04/21 03:46:23;;;;;;;10.40;8.60;;;;;;;4.36;67.78;98791.72;3529750;40;20055;-65
2021/04/21 03:48:50;;;;;;;11.05;8.90;;;;;;;4.42;67.55;98798.16;3539165;40;20426;-65
2021/04/21 03:51:21;;;;;;;9.07;8.10;;;;;;;4.42;67.36;98793.75;3540342;40;20589;-65
2021/04/21 03:53:49;;;;;;;10.23;7.97;;;;;;;4.52;67.38;98795.44;3531622;40;20058;-64
2021/04/21 03:56:18;;;;;;;10.00;8.10;;;;;;;4.58;67.18;98794.84;3540550;40;20058;-65
2021/04/21 03:58:47;;;;;;;11.35;9.45;;;;;;;4.60;66.97;98787.63;3540245;40;20054;-64
2021/04/21 04:01:16;;;;;;;10.95;8.60;;;;;;;4.63;67.09;98787.34;3540435;40;20152;-64
2021/04/21 04:03:48;;;;;;;11.43;8.25;;;;;;;4.69;66.71;98784.94;3540682;40;20061;-65
2021/04/21 04:06:19;;;;;;;10.90;8.38;;;;;;;4.69;66.48;98784.94;3540776;40;20061;-64
2021/04/21 04:08:50;;;;;;;10.70;8.15;;;;;;;4.63;66.46;98787.34;3540228;40;20401;-64
2021/04/21 04:11:22;;;;;;;10.38;8.32;;;;;;;4.57;66.02;98790.56;3540515;40;20058;-64
2021/04/21 04:13:54;;;;;;;11.05;8.48;;;;;;;4.48;66.61;98790.50;3540414;40;20051;-64
2021/04/21 04:16:23;;;;;;;10.20;9.10;;;;;;;4.42;66.79;98790.31;3540304;40;20086;-64
2021/04/21 04:18:54;;;;;;;12.48;9.27;;;;;;;4.35;66.82;98791.91;3540058;40;20460;-64
2021/04/21 04:21:29;;;;;;;12.40;9.18;;;;;;;4.27;66.90;98792.66;3540102;40;20035;-65
2021/04/21 04:23:59;;;;;;;12.73;9.15;;;;;;;4.21;67.16;98791.47;3530915;40;20385;-64
2021/04/21 04:26:27;;;;;;;10.02;8.70;;;;;;;4.21;67.36;98796.72;3530942;40;20055;-64
2021/04/21 04:28:55;;;;;;;10.57;8.85;;;;;;;4.16;67.28;98800.75;3540022;40;20035;-64
2021/04/21 04:31:22;;;;;;;11.13;8.43;;;;;;;4.06;67.39;98808.69;3540309;40;20054;-66
2021/04/21 04:33:50;;;;;;;10.40;8.35;;;;;;;4.07;67.75;98801.66;3540491;40;20063;-65
2021/04/21 04:36:17;;;;;;;12.18;9.57;;;;;;;4.10;67.62;98806.59;3540156;40;20050;-64
2021/04/21 04:38:45;;;;;;;12.80;9.35;;;;;;;4.14;67.64;98806.13;3539006;40;20050;-64
2021/04/21 04:41:13;;;;;;;11.82;9.43;;;;;;;4.13;67.38;98811.53;3540096;40;20058;-64
2021/04/21 04:43:42;;;;;;;12.35;9.35;;;;;;;4.08;67.44;98809.38;3539249;40;20027;-65
2021/04/21 04:46:12;;;;;;;13.15;8.82;;;;;;;4.08;67.60;98808.53;3539485;40;20076;-64
2021/04/21 04:48:44;;;;;;;14.48;10.25;;;;;;;4.11;67.79;98819.50;3540142;40;20051;-64
2021/04/21 04:51:12;;;;;;;13.85;10.15;;;;;;;4.17;67.77;98815.50;3530828;40;20051;-64
2021/04/21 04:53:41;;;;;;;13.75;10.82;;;;;;;4.20;67.80;98821.25;3531291;40;20083;-65
2021/04/21 04:56:10;;;;;;;12.90;9.60;;;;;;;4.27;67.91;98816.22;3539973;40;20031;-64
2021/04/21 04:58:40;;;;;;;12.48;9.88;;;;;;;4.31;67.72;98822.78;3530420;40;20129;-64
2021/04/21 05:01:09;;;;;;;12.20;10.40;;;;;;;4.38;67.40;98823.81;3539949;40;20038;-65
2021/04/21 05:03:44;;;;;;;12.65;10.05;;;;;;;4.45;67.29;98831.91;3540315;40;20079;-64
2021/04/21 05:06:12;;;;;;;13.32;10.57;;;;;;;4.47;67.10;98825.53;3542829;40;20424;-65
2021/04/21 05:08:45;;;;;;;16.15;10.02;;;;;;;4.51;67.17;98830.47;3545445;40;20113;-64
2021/04/21 05:11:17;;;;;;;14.68;11.88;;;;;;;4.56;66.91;98833.44;3541986;40;20384;-65
2021/04/21 05:13:48;;;;;;;17.10;11.95;;;;;;;4.54;66.28;98832.78;3540430;40;20046;-65
2021/04/21 05:16:48;;;;;;;16.30;11.20;;;;;;;4.55;66.76;98839.66;3539785;40;20058;-65
2021/04/21 05:19:51;;;;;;;17.33;11.70;;;;;;;4.68;66.36;98834.81;3539771;40;20061;-64
2021/04/21 05:22:47;;;;;;;17.00;12.25;;;;;;;4.72;66.13;98836.97;3535161;40;20035;-64
2021/04/21 05:25:46;;;;;;;15.00;11.48;;;;;;;4.78;66.14;98840.78;3535799;40;20395;-65
2021/04/21 05:28:38;;;;;;;13.25;10.75;;;;;;;4.80;66.43;98841.44;3539273;40;20055;-65
2021/04/21 05:31:43;;;;;;;16.73;11.70;;;;;;;4.88;66.30;98851.97;3539792;40;20110;-65
2021/04/21 05:34:43;;;;;;;12.88;10.35;;;;;;;4.94;66.30;98847.91;3539845;40;20405;-65
2021/04/21 05:37:48;;;;;;;16.15;12.57;;;;;;;4.98;65.94;98844.00;3539441;40;20121;-64
2021/04/21 05:40:55;;;;;;;14.65;10.98;;;;;;;5.10;66.13;98841.91;3530345;40;20037;-64
2021/04/21 05:44:03;;;;;;;13.88;10.80;;;;;;;5.21;65.97;98846.88;3530844;40;20078;-64
2021/04/21 05:47:07;;;;;;;12.40;10.32;;;;;;;5.39;65.89;98839.78;3520499;40;20050;-64
2021/04/21 05:50:07;;;;;;;13.18;10.70;;;;;;;5.53;65.51;98840.94;3530754;40;20058;-64
2021/04/21 05:53:11;;;;;;;13.43;10.48;;;;;;;5.68;65.14;98847.22;3539746;40;20061;-64
2021/04/21 05:56:15;;;;;;;16.00;11.15;;;;;;;5.72;64.50;98845.13;3530759;40;20149;-64
2021/04/21 05:59:09;;;;;;;15.17;10.67;;;;;;;5.75;64.46;98843.94;3539455;40;20058;-64
2021/04/21 06:01:39;;;;;;;14.95;12.40;;;;;;;5.84;64.69;98843.81;3540080;40;20597;-64
2021/04/21 06:04:09;;;;;;;14.82;11.57;;;;;;;5.89;64.03;98845.97;3539845;40;20355;-64
2021/04/21 06:06:35;;;;;;;15.75;12.00;;;;;;;5.86;63.90;98844.47;3530947;40;20057;-64
2021/04/21 06:09:07;;;;;;;14.77;12.18;;;;;;;5.89;64.00;98846.78;3530421;40;20055;-64
2021/04/21 06:11:34;;;;;;;14.18;10.88;;;;;;;5.94;64.18;98847.13;3539187;40;20047;-65
2021/04/21 06:14:04;;;;;;;18.05;11.23;;;;;;;6.04;64.18;98841.75;3539878;40;20081;-66
2021/04/21 06:16:33;;;;;;;15.60;11.27;;;;;;;6.16;63.68;98844.84;3541675;40;20054;-65
2021/04/21 06:19:04;;;;;;;13.45;10.85;;;;;;;6.25;63.52;98843.91;3544048;40;20077;-65
2021/04/21 06:21:34;;;;;;;14.18;12.38;;;;;;;6.38;63.21;98844.22;3545410;40;20315;-65
2021/04/21 06:24:01;;;;;;;15.85;11.52;;;;;;;6.48;63.29;98848.47;3544503;40;20110;-65
2021/04/21 06:26:30;;;;;;;13.77;11.82;;;;;;;6.55;62.81;98847.66;3535789;40;20034;-65
2021/04/21 06:28:58;;;;;;;15.93;12.07;;;;;;;6.61;62.91;98849.63;3533257;40;20053;-65
2021/04/21 06:31:32;;;;;;;15.30;11.95;;;;;;;6.69;62.99;98846.16;3531536;40;20045;-65
2021/04/21 06:33:59;;;;;;;16.13;12.30;;;;;;;6.85;62.97;98847.94;3539948;40;20308;-65
2021/04/21 06:36:34;;;;;;;15.20;11.32;;;;;;;7.01;62.93;98855.78;3540567;40;20045;-65
2021/04/21 06:39:01;;;;;;;14.38;11.65;;;;;;;7.18;62.46;98852.13;3540762;40;20373;-65
2021/04/21 06:41:28;;;;;;;15.77;11.73;;;;;;;7.30;62.18;98855.19;3531240;40;20101;-65
2021/04/21 06:43:56;;;;;;;14.98;12.00;;;;;;;7.45;61.94;98850.03;3539554;40;20061;-65
2021/04/21 06:46:23;;;;;;;14.10;12.60;;;;;;;7.47;60.99;98861.22;3530379;40;20054;-65
2021/04/21 06:48:55;;;;;;;17.20;12.95;;;;;;;7.52;61.38;98858.09;3530025;40;20407;-65
2021/04/21 06:51:24;;;;;;;18.13;12.70;;;;;;;7.65;61.24;98853.06;3539418;40;20059;-64
2021/04/21 06:53:53;;;;;;;21.23;17.42;;;;;;;7.82;61.47;98851.16;3530269;40;20046;-65
2021/04/21 06:56:30;;;;;;;17.30;13.45;;;;;;;7.98;60.29;98863.41;3530323;40;20051;-65
2021/04/21 06:58:57;;;;;;;16.08;13.18;;;;;;;7.97;60.23;98859.97;3538990;40;20057;-64
2021/04/21 07:01:25;;;;;;;21.75;13.75;;;;;;;8.07;59.71;98857.09;3539230;40;20098;-65
2021/04/21 07:03:54;;;;;;;15.65;12.85;;;;;;;8.11;59.97;98855.75;3539219;40;20320;-65
2021/04/21 07:06:22;;;;;;;17.27;12.70;;;;;;;8.15;60.22;98859.66;3530349;40;20035;-65
2021/04/21 07:08:49;;;;;;;22.13;14.25;;;;;;;8.33;60.34;98851.50;3530392;40;20129;-64
2021/04/21 07:11:21;;;;;;;16.80;12.40;;;;;;;8.50;60.29;98858.28;3542272;40;20043;-65
2021/04/21 07:13:49;;;;;;;20.13;14.00;;;;;;;8.71;59.94;98852.34;3541442;40;20054;-64
2021/04/21 07:16:18;;;;;;;22.08;14.30;;;;;;;8.88;59.50;98850.34;3540768;40;20054;-65
2021/04/21 07:18:51;;;;;;;20.23;13.65;;;;;;;9.03;58.93;98851.19;3530093;40;20051;-65
2021/04/21 07:21:19;;;;;;;22.77;13.70;;;;;;;9.17;59.12;98849.53;3539516;40;20046;-65
2021/04/21 07:23:48;;;;;;;22.63;14.75;;;;;;;9.30;58.43;98852.34;3539487;40;20074;-64
2021/04/21 07:26:15;;;;;;;23.05;13.50;;;;;;;9.41;58.08;98854.53;3530634;40;20058;-64
2021/04/21 07:28:43;;;;;;;19.50;15.63;;;;;;;9.57;57.77;98857.97;3530194;40;20051;-64
2021/04/21 07:31:13;;;;;;;21.17;13.88;;;;;;;9.69;57.20;98856.50;3539369;40;20054;-64
2021/04/21 07:33:42;;;;;;;19.05;13.73;;;;;;;9.83;56.97;98850.34;3530196;40;20077;-64
2021/04/21 07:36:14;;;;;;;15.20;12.95;;;;;;;9.99;56.25;98848.50;3539120;40;20043;-64
2021/04/21 07:38:44;;;;;;;17.45;12.52;;;;;;;10.08;56.10;98850.00;3539166;40;20047;-63
2021/04/21 07:41:12;;;;;;;14.20;11.65;;;;;;;10.17;55.97;98847.06;3539336;40;20046;-65
2021/04/21 07:43:41;;;;;;;16.50;13.90;;;;;;;10.34;55.85;98847.66;3539479;40;20454;-66
2021/04/21 07:46:15;;;;;;;31.25;22.45;;;;;;;10.55;55.56;98846.00;3539248;40;20117;-65
2021/04/21 07:48:44;;;;;;;38.88;29.05;;;;;;;10.69;55.11;98836.31;3538925;40;20079;-63
2021/04/21 07:51:37;;;;;;;31.98;19.63;;;;;;;10.90;54.69;98842.41;3540299;40;20051;-64
2021/04/21 07:54:07;;;;;;;21.42;15.23;;;;;;;11.07;53.50;98842.09;3540541;40;20121;-64
2021/04/21 07:56:35;;;;;;;22.92;14.90;;;;;;;11.12;52.82;98844.97;3531832;40;20042;-66
2021/04/21 07:59:16;;;;;;;19.95;10.30;;;;;;;11.22;53.59;98840.13;3540800;40;20037;-65
2021/04/21 08:01:45;;;;;;;15.65;13.30;;;;;;;11.40;53.16;98843.06;3540539;40;20062;-66
2021/04/21 08:04:20;;;;;;;17.35;13.05;;;;;;;11.56;51.68;98844.56;3541297;40;20082;-66
2021/04/21 08:06:51;;;;;;;15.77;11.70;;;;;;;11.63;51.24;98847.22;3532803;40;20019;-66
2021/04/21 08:09:23;;;;;;;14.25;10.75;;;;;;;11.70;51.15;98839.31;3541362;40;20379;-66
2021/04/21 08:12:07;;;;;;;12.57;9.88;;;;;;;11.76;51.26;98846.47;3540672;40;20427;-65
2021/04/21 08:14:42;;;;;;;14.95;11.95;;;;;;;11.88;51.55;98837.78;3540944;40;20051;-67
2021/04/21 08:17:10;;;;;;;14.68;13.00;;;;;;;12.05;51.35;98843.53;3539056;40;20127;-66
2021/04/21 08:19:44;;;;;;;14.05;11.60;;;;;;;12.23;50.66;98839.47;3539317;40;20054;-67
2021/04/21 08:22:12;;;;;;;15.25;12.50;;;;;;;12.35;50.35;98838.66;3539104;40;20051;-65
2021/04/21 08:24:45;;;;;;;15.88;12.23;;;;;;;12.51;49.88;98839.28;3538798;40;20062;-64
2021/04/21 08:27:14;;;;;;;12.80;8.15;;;;;;;12.67;50.88;98838.88;3538559;40;20046;-65
2021/04/21 08:29:42;;;;;;;16.10;11.82;;;;;;;12.96;49.90;98834.97;3538603;40;20051;-64
2021/04/21 08:32:11;;;;;;;14.65;11.77;;;;;;;13.20;49.12;98836.13;3529286;40;20054;-65
2021/04/21 08:34:38;;;;;;;12.75;10.05;;;;;;;13.38;48.81;98830.97;3538963;40;20090;-65
2021/04/21 08:37:05;;;;;;;14.05;10.38;;;;;;;13.45;48.46;98832.81;3539977;40;20332;-66
2021/04/21 08:39:37;;;;;;;14.27;11.05;;;;;;;13.58;48.19;98830.91;3581746;23;20041;-64
2021/04/21 08:42:07;;;;;;;15.05;11.40;;;;;;;13.62;47.38;98839.28;3550225;40;20077;-64
2021/04/21 08:44:40;;;;;;;15.23;9.85;;;;;;;13.63;47.79;98832.94;3550806;40;20094;-64
2021/04/21 08:47:08;;;;;;;10.57;8.73;;;;;;;13.77;47.95;98829.19;3550675;40;20418;-64
2021/04/21 08:49:37;;;;;;;13.93;10.98;;;;;;;13.92;47.21;98831.59;3550704;40;20050;-63
2021/04/21 08:52:06;;;;;;;14.82;11.52;;;;;;;14.00;47.33;98833.13;3550354;40;20053;-65
2021/04/21 08:54:33;;;;;;;13.80;10.55;;;;;;;14.18;46.37;98829.78;3550457;40;20046;-64
2021/04/21 08:57:01;;;;;;;13.50;9.73;;;;;;;14.28;46.97;98835.41;3550159;40;20057;-64
2021/04/21 08:59:28;;;;;;;14.02;10.27;;;;;;;14.43;46.23;98829.78;3550615;40;20094;-64
2021/04/21 09:01:55;;;;;;;12.57;9.95;;;;;;;14.49;46.02;98828.94;3550825;40;20046;-64
2021/04/21 09:04:22;;;;;;;17.55;12.07;;;;;;;14.69;45.51;98824.28;3550650;40;20415;-63
2021/04/21 09:06:50;;;;;;;12.13;9.32;;;;;;;14.79;44.91;98827.25;3550318;40;20423;-64
2021/04/21 09:09:18;;;;;;;10.55;8.00;;;;;;;14.85;45.01;98823.72;3550012;40;20414;-64
2021/04/21 09:11:46;;;;;;;11.48;8.60;;;;;;;14.81;44.62;98825.19;3550166;40;20101;-64
2021/04/21 09:14:14;;;;;;;13.32;10.02;;;;;;;14.93;44.64;98827.13;3550550;40;20046;-64
2021/04/21 09:16:41;;;;;;;14.45;9.93;;;;;;;15.12;43.71;98826.13;3550131;40;20085;-64
2021/04/21 09:19:10;;;;;;;13.95;10.02;;;;;;;15.33;43.61;98822.19;3550284;40;20057;-64
2021/04/21 09:21:38;;;;;;;11.07;7.78;;;;;;;15.46;42.99;98824.69;3550691;40;20416;-64
2021/04/21 09:24:11;;;;;;;12.52;9.27;;;;;;;15.54;42.53;98826.25;3550820;40;20494;-64
2021/04/21 09:26:39;;;;;;;15.18;8.77;;;;;;;15.62;42.41;98823.28;3550509;40;20054;-64
2021/04/21 09:29:06;;;;;;;16.20;8.70;;;;;;;15.68;42.23;98822.41;3550282;40;20120;-64
2021/04/21 09:31:34;;;;;;;11.13;8.40;;;;;;;15.87;41.45;98822.38;3550617;40;20061;-64
2021/04/21 09:34:10;;;;;;;14.85;10.82;;;;;;;16.04;41.26;98826.00;3550704;40;20062;-64
2021/04/21 09:36:40;;;;;;;11.13;9.40;;;;;;;16.20;40.27;98814.69;3551360;40;20044;-64
2021/04/21 09:39:09;;;;;;;13.98;9.10;;;;;;;16.35;39.64;98815.06;3550323;40;20046;-64
2021/04/21 09:41:37;;;;;;;10.18;8.20;;;;;;;16.52;38.77;98815.22;3550465;40;20054;-64
2021/04/21 09:44:12;;;;;;;9.23;8.07;;;;;;;16.57;38.59;98810.03;3550685;40;20054;-64
2021/04/21 09:46:40;;;;;;;8.35;7.50;;;;;;;16.57;39.15;98814.50;3549448;40;20050;-64
2021/04/21 09:49:27;;;;;;;9.88;8.65;;;;;;;16.72;38.16;98817.56;3541106;40;20062;-64
2021/04/21 09:51:58;;;;;;;11.43;8.30;;;;;;;16.61;37.72;98813.00;3550492;40;20086;-64
2021/04/21 09:54:35;;;;;;;10.38;7.70;;;;;;;16.58;37.54;98806.31;3550400;40;20050;-65
2021/04/21 09:57:17;;;;;;;10.15;7.97;;;;;;;16.63;37.82;98802.13;3552809;40;20050;-65
2021/04/21 09:59:57;;;;;;;11.45;8.00;;;;;;;16.81;37.84;98799.34;3551470;40;20054;-64
2021/04/21 10:02:32;;;;;;;8.77;7.88;;;;;;;17.05;37.53;98800.16;3550394;40;20144;-64
2021/04/21 10:05:19;;;;;;;14.88;10.73;;;;;;;17.20;36.90;98802.34;3550333;40;20374;-65
2021/04/21 10:07:45;;;;;;;7.38;6.60;;;;;;;17.23;36.73;98792.00;3549696;40;20050;-64
2021/04/21 10:10:26;;;;;;;7.97;7.20;;;;;;;17.27;35.93;98795.03;3550171;40;20345;-64
2021/04/21 10:12:54;;;;;;;8.52;7.15;;;;;;;17.45;36.22;98794.84;3550266;40;20062;-64
2021/04/21 10:15:30;;;;;;;7.63;6.18;;;;;;;17.52;35.90;98795.53;3550083;40;20050;-65
2021/04/21 10:17:57;;;;;;;8.32;7.43;;;;;;;17.48;35.84;98794.38;3549572;40;20061;-64
2021/04/21 10:20:24;;;;;;;8.27;7.47;;;;;;;17.50;36.01;98789.59;3549768;40;20046;-64
2021/04/21 10:22:52;;;;;;;7.43;6.72;;;;;;;17.49;35.69;98790.63;3550463;40;20076;-64
2021/04/21 10:25:20;;;;;;;8.05;7.28;;;;;;;17.50;35.90;98783.44;3550387;40;20363;-64
2021/04/21 10:27:47;;;;;;;9.68;8.40;;;;;;;17.61;35.25;98787.13;3549147;40;20061;-64
2021/04/21 10:30:15;;;;;;;8.93;7.80;;;;;;;17.64;34.95;98786.66;3550119;40;20050;-65
2021/04/21 10:32:42;;;;;;;8.65;7.75;;;;;;;17.68;34.84;98787.81;3550257;40;20097;-65
2021/04/21 10:35:09;;;;;;;8.15;6.75;;;;;;;17.62;34.68;98783.38;3550327;40;20086;-65
2021/04/21 10:37:38;;;;;;;7.95;7.05;;;;;;;17.62;34.18;98780.72;3550276;40;20062;-65
2021/04/21 10:40:07;;;;;;;8.05;7.25;;;;;;;17.40;34.07;98780.56;3550230;40;20049;-65
2021/04/21 10:42:48;;;;;;;8.45;7.63;;;;;;;17.21;34.60;98785.25;3551092;40;20400;-65
2021/04/21 10:45:17;;;;;;;8.88;7.97;;;;;;;17.46;34.14;98780.41;3551693;40;20402;-65
2021/04/21 10:47:46;;;;;;;7.90;7.20;;;;;;;17.56;33.51;98780.63;3555963;40;20049;-65
2021/04/21 10:50:13;;;;;;;9.63;7.82;;;;;;;17.60;33.67;98782.84;3556602;40;20031;-65
2021/04/21 10:52:42;;;;;;;7.00;6.30;;;;;;;17.65;33.99;98781.06;3556243;40;20046;-65
2021/04/21 10:55:33;;;;;;;6.82;6.10;;;;;;;17.91;33.12;98770.84;3551480;40;20049;-65
2021/04/21 10:58:03;;;;;;;7.10;6.40;;;;;;;18.28;31.23;98765.84;3549580;40;20069;-65
2021/04/21 11:00:31;;;;;;;5.43;4.78;;;;;;;18.39;30.44;98761.47;3541694;40;20085;-65
2021/04/21 11:03:00;;;;;;;6.35;5.78;;;;;;;18.56;29.86;98763.06;3550298;40;20053;-64
2021/04/21 11:05:30;;;;;;;5.30;4.80;;;;;;;18.72;29.85;98766.00;3549994;40;20046;-65
2021/04/21 11:08:02;;;;;;;6.03;5.35;;;;;;;18.78;28.98;98754.34;3539761;40;20057;-65
2021/04/21 11:10:47;;;;;;;4.82;4.32;;;;;;;18.90;29.76;98755.03;3549741;40;20061;-65
2021/04/21 11:13:16;;;;;;;5.38;4.82;;;;;;;19.09;29.51;98757.41;3550785;40;20039;-65
2021/04/21 11:15:45;;;;;;;6.40;5.38;;;;;;;18.97;29.48;98752.97;3544403;40;20396;-65
2021/04/21 11:18:30;;;;;;;9.05;7.53;;;;;;;18.81;30.94;98751.13;3551794;40;20403;-65
2021/04/21 11:20:59;;;;;;;11.70;8.98;;;;;;;18.62;33.06;98757.81;3552717;40;20049;-64
2021/04/21 11:23:49;;;;;;;9.35;8.43;;;;;;;18.14;33.66;98757.34;3550346;40;20129;-64
2021/04/21 11:26:47;;;;;;;10.95;9.18;;;;;;;18.05;34.66;98759.63;3550118;40;20050;-64
2021/04/21 11:29:16;;;;;;;9.32;8.32;;;;;;;18.03;34.19;98760.91;3550611;40;20050;-64
2021/04/21 11:32:11;;;;;;;11.88;9.48;;;;;;;17.95;34.77;98766.63;3551210;40;20086;-65
2021/04/21 11:34:40;;;;;;;8.75;7.85;;;;;;;17.81;35.06;98763.47;3552124;40;20054;-64
2021/04/21 11:37:12;;;;;;;9.63;7.82;;;;;;;17.79;35.14;98761.00;3551951;40;20056;-64
2021/04/21 11:39:50;;;;;;;11.65;9.25;;;;;;;17.81;34.11;98758.13;3552006;40;20042;-63
2021/04/21 11:42:20;;;;;;;9.27;8.27;;;;;;;17.75;34.12;98759.06;3550289;40;20054;-65
2021/04/21 11:44:55;;;;;;;9.57;8.57;;;;;;;17.88;34.67;98757.94;3551179;40;20050;-64
2021/04/21 11:47:31;;;;;;;9.73;7.88;;;;;;;17.95;34.03;98758.63;3551143;40;20050;-63
2021/04/21 11:50:07;;;;;;;9.25;8.20;;;;;;;18.04;33.52;98746.47;3551345;40;20050;-64
2021/04/21 11:52:43;;;;;;;7.30;6.47;;;;;;;18.32;33.22;98751.72;3550952;40;20390;-65
2021/04/21 11:55:10;;;;;;;8.85;6.93;;;;;;;18.65;32.17;98751.94;3551954;40;20305;-62
2021/04/21 11:57:38;;;;;;;6.00;5.40;;;;;;;18.79;29.89;98742.56;3552071;40;20057;-63
2021/04/21 12:00:08;;;;;;;7.22;5.55;;;;;;;19.02;29.85;98747.69;3551174;40;20054;-65